sensor_id;sensor_type;location;lat;lon;timestamp;pressure;altitude;pressure_sealevel;temperature;humidity
62697;BME280;48761;42.680;23.312;2023-02-23T00:02:02;94679.78;;;10.76;49.17
62697;BME280;48761;42.680;23.312;2023-02-23T00:04:28;94678.34;;;10.72;49.55
62697;BME280;48761;42.680;23.312;2023-02-23T00:06:54;94681.47;;;10.77;49.45
62697;BME280;48761;42.680;23.312;2023-02-23T00:09:20;94684.25;;;10.75;49.42
62697;BME280;48761;42.680;23.312;2023-02-23T00:11:46;94679.13;;;10.61;49.49
62697;BME280;48761;42.680;23.312;2023-02-23T00:14:12;94687.47;;;10.68;49.24
62697;BME280;48761;42.680;23.312;2023-02-23T00:16:38;94685.38;;;10.60;49.60
62697;BME280;48761;42.680;23.312;2023-02-23T00:19:04;94660.16;;;10.28;49.92
62697;BME280;48761;42.680;23.312;2023-02-23T00:21:31;94658.94;;;10.07;50.34
62697;BME280;48761;42.680;23.312;2023-02-23T00:24:00;94695.63;;;10.27;50.47
62697;BME280;48761;42.680;23.312;2023-02-23T00:26:28;94695.84;;;10.37;50.46
62697;BME280;48761;42.680;23.312;2023-02-23T00:28:55;94692.88;;;10.41;50.18
62697;BME280;48761;42.680;23.312;2023-02-23T00:31:22;94689.88;;;10.46;50.30
62697;BME280;48761;42.680;23.312;2023-02-23T00:33:48;94694.00;;;10.50;49.90
62697;BME280;48761;42.680;23.312;2023-02-23T00:36:14;94655.06;;;10.25;50.13
62697;BME280;48761;42.680;23.312;2023-02-23T00:38:40;94682.63;;;10.11;51.64
62697;BME280;48761;42.680;23.312;2023-02-23T00:41:13;94697.38;;;10.15;51.63
62697;BME280;48761;42.680;23.312;2023-02-23T00:43:40;94687.06;;;10.23;51.17
62697;BME280;48761;42.680;23.312;2023-02-23T00:46:06;94691.66;;;10.08;51.26
62697;BME280;48761;42.680;23.312;2023-02-23T00:48:34;94686.69;;;9.90;51.46
62697;BME280;48761;42.680;23.312;2023-02-23T00:51:01;94693.16;;;9.86;52.72
62697;BME280;48761;42.680;23.312;2023-02-23T00:53:28;94689.75;;;9.84;53.43
62697;BME280;48761;42.680;23.312;2023-02-23T00:55:54;94686.69;;;9.90;52.20
62697;BME280;48761;42.680;23.312;2023-02-23T00:58:21;94684.03;;;9.77;53.22
62697;BME280;48761;42.680;23.312;2023-02-23T01:00:47;94668.31;;;9.61;52.70
62697;BME280;48761;42.680;23.312;2023-02-23T01:03:13;94690.38;;;9.22;54.99
62697;BME280;48761;42.680;23.312;2023-02-23T01:05:39;94688.47;;;8.83;56.28
62697;BME280;48761;42.680;23.312;2023-02-23T01:08:05;94681.19;;;8.59;56.86
62697;BME280;48761;42.680;23.312;2023-02-23T01:10:31;94689.31;;;8.56;57.13
62697;BME280;48761;42.680;23.312;2023-02-23T01:12:57;94687.00;;;8.79;56.57
62697;BME280;48761;42.680;23.312;2023-02-23T01:15:23;94687.13;;;8.91;56.14
62697;BME280;48761;42.680;23.312;2023-02-23T01:17:49;94693.72;;;8.98;55.57
62697;BME280;48761;42.680;23.312;2023-02-23T01:20:16;94644.94;;;9.01;54.77
62697;BME280;48761;42.680;23.312;2023-02-23T01:22:46;94659.38;;;9.10;54.64
62697;BME280;48761;42.680;23.312;2023-02-23T01:25:13;94679.16;;;9.45;53.40
62697;BME280;48761;42.680;23.312;2023-02-23T01:27:40;94688.41;;;9.52;53.28
62697;BME280;48761;42.680;23.312;2023-02-23T01:30:07;94679.38;;;9.55;53.36
62697;BME280;48761;42.680;23.312;2023-02-23T01:32:34;94685.22;;;9.60;53.11
62697;BME280;48761;42.680;23.312;2023-02-23T01:35:06;94673.09;;;9.56;52.76
62697;BME280;48761;42.680;23.312;2023-02-23T01:37:34;94676.59;;;9.69;52.61
62697;BME280;48761;42.680;23.312;2023-02-23T01:40:02;94695.50;;;9.78;52.70
62697;BME280;48761;42.680;23.312;2023-02-23T01:42:28;94670.22;;;9.59;52.83
62697;BME280;48761;42.680;23.312;2023-02-23T01:47:22;94675.53;;;9.59;52.54
62697;BME280;48761;42.680;23.312;2023-02-23T01:49:48;94649.84;;;9.46;52.77
62697;BME280;48761;42.680;23.312;2023-02-23T01:52:16;94675.75;;;9.56;52.62
62697;BME280;48761;42.680;23.312;2023-02-23T01:54:49;94676.00;;;9.66;52.70
62697;BME280;48761;42.680;23.312;2023-02-23T01:57:16;94680.53;;;9.63;52.29
62697;BME280;48761;42.680;23.312;2023-02-23T01:59:47;94662.59;;;9.41;52.72
62697;BME280;48761;42.680;23.312;2023-02-23T02:02:17;94682.56;;;9.60;52.60
62697;BME280;48761;42.680;23.312;2023-02-23T02:04:43;94650.69;;;9.34;52.85
62697;BME280;48761;42.680;23.312;2023-02-23T02:07:18;94668.53;;;9.32;53.10
62697;BME280;48761;42.680;23.312;2023-02-23T02:09:47;94672.34;;;9.40;53.29
62697;BME280;48761;42.680;23.312;2023-02-23T02:12:14;94663.22;;;9.32;53.25
62697;BME280;48761;42.680;23.312;2023-02-23T02:14:40;94666.41;;;9.24;53.46
62697;BME280;48761;42.680;23.312;2023-02-23T02:17:26;94666.28;;;9.38;53.33
62697;BME280;48761;42.680;23.312;2023-02-23T02:23:10;94671.69;;;9.24;53.45
62697;BME280;48761;42.680;23.312;2023-02-23T02:45:06;94674.75;;;9.04;54.81
62697;BME280;48761;42.680;23.312;2023-02-23T02:47:44;94665.91;;;8.91;55.46
62697;BME280;48761;42.680;23.312;2023-02-23T02:50:21;94668.56;;;8.91;55.52
62697;BME280;48761;42.680;23.312;2023-02-23T02:52:55;94672.03;;;8.78;56.01
62697;BME280;48761;42.680;23.312;2023-02-23T02:55:25;94671.00;;;8.94;55.28
62697;BME280;48761;42.680;23.312;2023-02-23T02:57:56;94672.50;;;8.98;55.29
62697;BME280;48761;42.680;23.312;2023-02-23T03:00:28;94674.59;;;8.93;55.17
62697;BME280;48761;42.680;23.312;2023-02-23T03:02:55;94655.72;;;8.84;54.90
62697;BME280;48761;42.680;23.312;2023-02-23T03:05:41;94660.06;;;8.85;54.52
62697;BME280;48761;42.680;23.312;2023-02-23T03:08:20;94668.44;;;8.79;55.53
62697;BME280;48761;42.680;23.312;2023-02-23T03:10:54;94674.56;;;8.80;55.61
62697;BME280;48761;42.680;23.312;2023-02-23T03:16:41;94635.28;;;8.31;56.09
62697;BME280;48761;42.680;23.312;2023-02-23T03:19:23;94670.16;;;8.38;56.63
62697;BME280;48761;42.680;23.312;2023-02-23T03:22:03;94684.19;;;8.53;56.36
62697;BME280;48761;42.680;23.312;2023-02-23T03:24:43;94684.81;;;8.44;56.90
62697;BME280;48761;42.680;23.312;2023-02-23T03:27:22;94687.59;;;8.55;56.48
62697;BME280;48761;42.680;23.312;2023-02-23T03:29:58;94689.16;;;8.59;55.98
62697;BME280;48761;42.680;23.312;2023-02-23T03:32:30;94692.13;;;8.68;56.27
62697;BME280;48761;42.680;23.312;2023-02-23T03:35:10;94682.81;;;8.75;55.91
62697;BME280;48761;42.680;23.312;2023-02-23T03:37:46;94694.78;;;8.68;55.81
62697;BME280;48761;42.680;23.312;2023-02-23T03:40:25;94695.94;;;8.63;56.05
62697;BME280;48761;42.680;23.312;2023-02-23T03:42:54;94689.16;;;8.59;55.96
62697;BME280;48761;42.680;23.312;2023-02-23T03:45:23;94678.53;;;8.59;56.01
62697;BME280;48761;42.680;23.312;2023-02-23T03:47:52;94701.44;;;8.60;56.17
62697;BME280;48761;42.680;23.312;2023-02-23T03:50:44;94702.56;;;8.56;55.78
62697;BME280;48761;42.680;23.312;2023-02-23T03:53:13;94696.28;;;8.57;55.92
62697;BME280;48761;42.680;23.312;2023-02-23T03:55:47;94675.88;;;8.45;56.06
62697;BME280;48761;42.680;23.312;2023-02-23T03:58:25;94677.41;;;8.34;56.75
62697;BME280;48761;42.680;23.312;2023-02-23T04:00:55;94713.03;;;8.58;56.65
62697;BME280;48761;42.680;23.312;2023-02-23T04:03:24;94710.13;;;8.62;56.37
62697;BME280;48761;42.680;23.312;2023-02-23T04:05:54;94694.22;;;8.62;56.83
62697;BME280;48761;42.680;23.312;2023-02-23T04:08:24;94718.09;;;8.48;57.22
62697;BME280;48761;42.680;23.312;2023-02-23T04:13:48;94706.25;;;8.54;56.75
62697;BME280;48761;42.680;23.312;2023-02-23T04:16:18;94714.63;;;8.33;57.47
62697;BME280;48761;42.680;23.312;2023-02-23T04:18:45;94700.88;;;8.40;57.21
62697;BME280;48761;42.680;23.312;2023-02-23T04:21:11;94703.41;;;8.42;57.19
62697;BME280;48761;42.680;23.312;2023-02-23T04:23:37;94672.75;;;8.10;57.65
62697;BME280;48761;42.680;23.312;2023-02-23T04:26:04;94708.13;;;8.24;57.46
62697;BME280;48761;42.680;23.312;2023-02-23T04:28:30;94679.84;;;8.10;57.36
62697;BME280;48761;42.680;23.312;2023-02-23T04:30:56;94704.97;;;8.17;57.91
62697;BME280;48761;42.680;23.312;2023-02-23T04:33:22;94695.44;;;8.14;57.54
62697;BME280;48761;42.680;23.312;2023-02-23T04:35:48;94700.34;;;8.21;57.61
62697;BME280;48761;42.680;23.312;2023-02-23T04:38:14;94712.81;;;8.33;57.50
62697;BME280;48761;42.680;23.312;2023-02-23T04:40:40;94697.16;;;8.15;57.78
62697;BME280;48761;42.680;23.312;2023-02-23T04:43:06;94710.94;;;8.21;57.65
62697;BME280;48761;42.680;23.312;2023-02-23T04:45:32;94708.94;;;8.24;57.27
62697;BME280;48761;42.680;23.312;2023-02-23T04:47:58;94701.78;;;8.26;57.34
62697;BME280;48761;42.680;23.312;2023-02-23T04:50:24;94709.22;;;8.34;57.19
62697;BME280;48761;42.680;23.312;2023-02-23T04:52:50;94706.56;;;8.34;57.10
62697;BME280;48761;42.680;23.312;2023-02-23T04:55:19;94706.56;;;8.34;56.85
62697;BME280;48761;42.680;23.312;2023-02-23T04:57:45;94703.47;;;8.27;57.05
62697;BME280;48761;42.680;23.312;2023-02-23T05:00:12;94700.16;;;8.24;57.02
62697;BME280;48761;42.680;23.312;2023-02-23T05:02:38;94694.09;;;8.36;56.73
62697;BME280;48761;42.680;23.312;2023-02-23T05:05:05;94670.84;;;8.12;56.80
62697;BME280;48761;42.680;23.312;2023-02-23T05:07:31;94678.44;;;8.18;56.60
62697;BME280;48761;42.680;23.312;2023-02-23T05:09:57;94679.09;;;8.07;57.10
62697;BME280;48761;42.680;23.312;2023-02-23T05:12:23;94717.75;;;8.25;57.27
62697;BME280;48761;42.680;23.312;2023-02-23T05:14:49;94706.03;;;8.14;57.52
62697;BME280;48761;42.680;23.312;2023-02-23T05:17:15;94711.41;;;8.27;56.99
62697;BME280;48761;42.680;23.312;2023-02-23T05:19:41;94711.72;;;8.08;57.85
62697;BME280;48761;42.680;23.312;2023-02-23T05:22:07;94711.53;;;7.96;58.78
62697;BME280;48761;42.680;23.312;2023-02-23T05:24:33;94709.38;;;7.14;61.32
62697;BME280;48761;42.680;23.312;2023-02-23T05:26:59;94687.59;;;6.47;62.69
62697;BME280;48761;42.680;23.312;2023-02-23T05:29:25;94714.25;;;6.58;62.57
62697;BME280;48761;42.680;23.312;2023-02-23T05:31:51;94723.53;;;6.66;63.07
62697;BME280;48761;42.680;23.312;2023-02-23T05:34:17;94720.22;;;6.46;63.22
62697;BME280;48761;42.680;23.312;2023-02-23T05:36:43;94735.16;;;6.47;63.64
62697;BME280;48761;42.680;23.312;2023-02-23T05:39:09;94708.81;;;6.45;63.36
62697;BME280;48761;42.680;23.312;2023-02-23T05:41:35;94735.88;;;6.81;62.56
62697;BME280;48761;42.680;23.312;2023-02-23T05:44:01;94741.16;;;6.81;62.84
62697;BME280;48761;42.680;23.312;2023-02-23T05:46:27;94739.38;;;6.66;63.25
62697;BME280;48761;42.680;23.312;2023-02-23T05:48:58;94726.75;;;6.71;62.70
62697;BME280;48761;42.680;23.312;2023-02-23T05:51:25;94716.41;;;6.52;63.06
62697;BME280;48761;42.680;23.312;2023-02-23T05:53:51;94750.09;;;6.63;63.46
62697;BME280;48761;42.680;23.312;2023-02-23T05:56:17;94757.88;;;6.66;63.78
62697;BME280;48761;42.680;23.312;2023-02-23T05:58:43;94763.81;;;6.86;63.22
62697;BME280;48761;42.680;23.312;2023-02-23T06:01:09;94761.59;;;6.94;62.99
62697;BME280;48761;42.680;23.312;2023-02-23T06:03:35;94764.41;;;7.38;62.68
62697;BME280;48761;42.680;23.312;2023-02-23T06:06:01;94761.16;;;7.78;61.91
62697;BME280;48761;42.680;23.312;2023-02-23T06:08:26;94753.78;;;8.27;59.88
62697;BME280;48761;42.680;23.312;2023-02-23T06:10:53;94763.00;;;8.79;58.90
62697;BME280;48761;42.680;23.312;2023-02-23T06:13:19;94762.00;;;9.22;57.66
62697;BME280;48761;42.680;23.312;2023-02-23T06:15:45;94763.00;;;9.47;56.71
62697;BME280;48761;42.680;23.312;2023-02-23T06:18:11;94758.16;;;9.67;55.53
62697;BME280;48761;42.680;23.312;2023-02-23T06:20:37;94765.16;;;9.81;55.31
62697;BME280;48761;42.680;23.312;2023-02-23T06:23:04;94769.41;;;9.84;55.61
62697;BME280;48761;42.680;23.312;2023-02-23T06:25:30;94770.06;;;10.01;54.87
62697;BME280;48761;42.680;23.312;2023-02-23T06:27:56;94765.81;;;10.11;54.42
62697;BME280;48761;42.680;23.312;2023-02-23T06:30:22;94748.91;;;10.12;53.71
62697;BME280;48761;42.680;23.312;2023-02-23T06:32:48;94782.75;;;10.48;53.70
62697;BME280;48761;42.680;23.312;2023-02-23T06:35:14;94769.78;;;10.69;53.34
62697;BME280;48761;42.680;23.312;2023-02-23T06:37:40;94771.84;;;10.90;52.49
62697;BME280;48761;42.680;23.312;2023-02-23T06:40:06;94786.84;;;11.16;52.23
62697;BME280;48761;42.680;23.312;2023-02-23T06:42:32;94756.75;;;11.51;51.06
62697;BME280;48761;42.680;23.312;2023-02-23T06:44:58;94762.16;;;11.86;50.13
62697;BME280;48761;42.680;23.312;2023-02-23T06:47:24;94773.34;;;12.03;49.64
62697;BME280;48761;42.680;23.312;2023-02-23T06:49:50;94779.34;;;12.29;48.96
62697;BME280;48761;42.680;23.312;2023-02-23T06:52:16;94784.81;;;11.44;49.92
62697;BME280;48761;42.680;23.312;2023-02-23T06:54:42;94771.06;;;11.62;50.00
62697;BME280;48761;42.680;23.312;2023-02-23T06:57:09;94791.72;;;11.22;50.48
62697;BME280;48761;42.680;23.312;2023-02-23T06:59:35;94783.66;;;11.60;49.72
62697;BME280;48761;42.680;23.312;2023-02-23T07:02:02;94756.94;;;11.37;49.68
62697;BME280;48761;42.680;23.312;2023-02-23T07:04:28;94790.81;;;11.35;49.72
62697;BME280;48761;42.680;23.312;2023-02-23T07:06:55;94781.84;;;11.36;50.07
62697;BME280;48761;42.680;23.312;2023-02-23T07:09:20;94769.59;;;10.46;50.69
62697;BME280;48761;42.680;23.312;2023-02-23T07:11:46;94752.47;;;10.50;50.62
62697;BME280;48761;42.680;23.312;2023-02-23T07:14:12;94777.44;;;10.74;50.90
62697;BME280;48761;42.680;23.312;2023-02-23T07:16:38;94786.84;;;11.16;49.66
62697;BME280;48761;42.680;23.312;2023-02-23T07:19:05;94791.25;;;11.28;49.37
62697;BME280;48761;42.680;23.312;2023-02-23T07:21:32;94795.03;;;10.88;50.56
62697;BME280;48761;42.680;23.312;2023-02-23T07:23:59;94775.97;;;10.43;51.20
62697;BME280;48761;42.680;23.312;2023-02-23T07:26:26;94782.69;;;10.87;50.78
62697;BME280;48761;42.680;23.312;2023-02-23T07:28:52;94784.22;;;10.78;50.76
62697;BME280;48761;42.680;23.312;2023-02-23T07:31:18;94787.78;;;10.90;50.26
62697;BME280;48761;42.680;23.312;2023-02-23T07:33:44;94778.09;;;11.27;49.82
62697;BME280;48761;42.680;23.312;2023-02-23T07:36:10;94775.53;;;11.97;48.43
62697;BME280;48761;42.680;23.312;2023-02-23T07:38:36;94761.38;;;11.61;48.59
62697;BME280;48761;42.680;23.312;2023-02-23T07:41:03;94764.16;;;12.07;48.13
62697;BME280;48761;42.680;23.312;2023-02-23T07:43:29;94769.63;;;12.51;47.64
62697;BME280;48761;42.680;23.312;2023-02-23T07:45:58;94751.13;;;12.15;47.94
62697;BME280;48761;42.680;23.312;2023-02-23T07:48:25;94772.38;;;12.84;46.51
62697;BME280;48761;42.680;23.312;2023-02-23T07:50:51;94770.97;;;12.23;47.14
62697;BME280;48761;42.680;23.312;2023-02-23T07:53:17;94766.31;;;11.90;48.30
62697;BME280;48761;42.680;23.312;2023-02-23T07:55:43;94770.81;;;12.82;46.73
62697;BME280;48761;42.680;23.312;2023-02-23T07:58:09;94746.28;;;12.20;47.74
62697;BME280;48761;42.680;23.312;2023-02-23T08:00:35;94759.97;;;12.16;47.78
62697;BME280;48761;42.680;23.312;2023-02-23T08:03:01;94765.81;;;11.96;48.36
62697;BME280;48761;42.680;23.312;2023-02-23T08:05:28;94749.38;;;12.03;48.17
62697;BME280;48761;42.680;23.312;2023-02-23T08:07:54;94773.28;;;12.27;47.97
62697;BME280;48761;42.680;23.312;2023-02-23T08:10:21;94738.97;;;12.57;46.97
62697;BME280;48761;42.680;23.312;2023-02-23T08:12:47;94764.19;;;12.76;46.45
62697;BME280;48761;42.680;23.312;2023-02-23T08:15:13;94745.28;;;12.21;47.44
62697;BME280;48761;42.680;23.312;2023-02-23T08:17:39;94760.44;;;12.44;47.28
62697;BME280;48761;42.680;23.312;2023-02-23T08:20:06;94769.75;;;12.27;47.83
62697;BME280;48761;42.680;23.312;2023-02-23T08:22:32;94744.78;;;12.74;46.80
62697;BME280;48761;42.680;23.312;2023-02-23T08:24:58;94763.53;;;12.95;46.26
62697;BME280;48761;42.680;23.312;2023-02-23T08:27:25;94765.84;;;12.77;46.87
62697;BME280;48761;42.680;23.312;2023-02-23T08:29:54;94772.53;;;12.83;46.76
62697;BME280;48761;42.680;23.312;2023-02-23T08:32:20;94736.66;;;12.75;46.37
62697;BME280;48761;42.680;23.312;2023-02-23T08:34:46;94753.28;;;12.79;46.17
62697;BME280;48761;42.680;23.312;2023-02-23T08:37:12;94766.84;;;13.20;45.87
62697;BME280;48761;42.680;23.312;2023-02-23T08:39:38;94763.59;;;13.50;45.40
62697;BME280;48761;42.680;23.312;2023-02-23T08:42:04;94770.34;;;14.30;43.87
62697;BME280;48761;42.680;23.312;2023-02-23T08:44:30;94740.19;;;14.59;42.95
62697;BME280;48761;42.680;23.312;2023-02-23T08:46:57;94751.88;;;14.27;43.29
62697;BME280;48761;42.680;23.312;2023-02-23T08:49:24;94764.78;;;14.21;44.01
62697;BME280;48761;42.680;23.312;2023-02-23T08:51:50;94757.91;;;13.97;44.01
62697;BME280;48761;42.680;23.312;2023-02-23T08:54:16;94756.16;;;13.65;44.41
62697;BME280;48761;42.680;23.312;2023-02-23T08:56:43;94732.81;;;14.10;43.67
62697;BME280;48761;42.680;23.312;2023-02-23T08:59:12;94762.13;;;14.94;42.62
62697;BME280;48761;42.680;23.312;2023-02-23T09:01:38;94757.81;;;15.13;41.92
62697;BME280;48761;42.680;23.312;2023-02-23T09:04:04;94758.81;;;14.71;42.51
62697;BME280;48761;42.680;23.312;2023-02-23T09:06:31;94762.09;;;14.43;42.84
62697;BME280;48761;42.680;23.312;2023-02-23T09:08:57;94758.44;;;14.85;42.38
62697;BME280;48761;42.680;23.312;2023-02-23T09:11:23;94762.28;;;14.61;42.49
62697;BME280;48761;42.680;23.312;2023-02-23T09:13:49;94755.53;;;14.57;42.64
62697;BME280;48761;42.680;23.312;2023-02-23T09:16:15;94730.78;;;15.26;41.83
62697;BME280;48761;42.680;23.312;2023-02-23T09:18:42;94748.25;;;15.90;40.74
62697;BME280;48761;42.680;23.312;2023-02-23T09:21:15;94746.59;;;15.49;41.03
62697;BME280;48761;42.680;23.312;2023-02-23T09:23:41;94751.88;;;15.09;41.66
62697;BME280;48761;42.680;23.312;2023-02-23T09:26:07;94742.81;;;14.81;42.10
62697;BME280;48761;42.680;23.312;2023-02-23T09:28:34;94748.94;;;15.12;41.63
62697;BME280;48761;42.680;23.312;2023-02-23T09:31:08;94750.25;;;15.48;41.14
62697;BME280;48761;42.680;23.312;2023-02-23T09:33:35;94745.72;;;15.39;41.30
62697;BME280;48761;42.680;23.312;2023-02-23T09:36:06;94742.34;;;15.37;41.41
62697;BME280;48761;42.680;23.312;2023-02-23T09:38:33;94750.41;;;15.46;41.23
62697;BME280;48761;42.680;23.312;2023-02-23T09:40:59;94752.78;;;15.60;41.05
62697;BME280;48761;42.680;23.312;2023-02-23T09:43:34;94745.97;;;15.95;40.46
62697;BME280;48761;42.680;23.312;2023-02-23T09:49:14;94747.50;;;16.56;39.14
62697;BME280;48761;42.680;23.312;2023-02-23T09:51:46;94731.25;;;16.29;39.34
62697;BME280;48761;42.680;23.312;2023-02-23T09:54:13;94742.75;;;16.50;39.33
62697;BME280;48761;42.680;23.312;2023-02-23T09:56:50;94732.63;;;16.72;38.53
62697;BME280;48761;42.680;23.312;2023-02-23T09:59:19;94726.75;;;16.20;39.31
62697;BME280;48761;42.680;23.312;2023-02-23T10:04:21;94732.47;;;15.77;39.89
62697;BME280;48761;42.680;23.312;2023-02-23T10:07:14;94731.31;;;15.99;39.63
62697;BME280;48761;42.680;23.312;2023-02-23T10:10:00;94717.13;;;16.27;38.93
62697;BME280;48761;42.680;23.312;2023-02-23T10:23:37;94711.31;;;17.17;37.37
62697;BME280;48761;42.680;23.312;2023-02-23T10:26:04;94717.41;;;17.19;37.17
62697;BME280;48761;42.680;23.312;2023-02-23T10:28:34;94674.53;;;16.99;37.67
62697;BME280;48761;42.680;23.312;2023-02-23T10:31:05;94677.34;;;16.79;37.83
62697;BME280;48761;42.680;23.312;2023-02-23T10:33:37;94693.56;;;16.59;38.11
62697;BME280;48761;42.680;23.312;2023-02-23T10:36:14;94708.88;;;16.77;38.16
62697;BME280;48761;42.680;23.312;2023-02-23T10:38:41;94693.66;;;16.67;38.31
62697;BME280;48761;42.680;23.312;2023-02-23T10:41:08;94687.00;;;16.72;37.92
62697;BME280;48761;42.680;23.312;2023-02-23T10:43:35;94697.31;;;16.48;38.20
62697;BME280;48761;42.680;23.312;2023-02-23T10:46:01;94694.06;;;16.73;37.98
62697;BME280;48761;42.680;23.312;2023-02-23T10:48:37;94688.34;;;16.86;37.52
62697;BME280;48761;42.680;23.312;2023-02-23T10:51:06;94688.88;;;16.89;37.38
62697;BME280;48761;42.680;23.312;2023-02-23T10:53:38;94671.09;;;17.07;37.25
62697;BME280;48761;42.680;23.312;2023-02-23T10:58:30;94638.59;;;17.28;36.89
62697;BME280;48761;42.680;23.312;2023-02-23T11:01:02;94671.72;;;17.55;37.36
62697;BME280;48761;42.680;23.312;2023-02-23T11:05:59;94666.16;;;17.75;37.46
62697;BME280;48761;42.680;23.312;2023-02-23T11:08:31;94668.59;;;17.42;36.83
62697;BME280;48761;42.680;23.312;2023-02-23T11:13:47;94660.69;;;17.22;37.09
62697;BME280;48761;42.680;23.312;2023-02-23T11:16:18;94644.88;;;17.00;37.48
62697;BME280;48761;42.680;23.312;2023-02-23T11:19:03;94648.06;;;16.67;37.75
62697;BME280;48761;42.680;23.312;2023-02-23T11:21:32;94650.75;;;17.04;38.00
62697;BME280;48761;42.680;23.312;2023-02-23T11:24:28;94651.09;;;17.38;37.65
62697;BME280;48761;42.680;23.312;2023-02-23T11:27:00;94645.03;;;17.17;36.99
62697;BME280;48761;42.680;23.312;2023-02-23T11:29:37;94636.91;;;17.27;37.55
62697;BME280;48761;42.680;23.312;2023-02-23T11:32:33;94632.50;;;16.89;37.59
62697;BME280;48761;42.680;23.312;2023-02-23T11:37:45;94639.47;;;16.82;37.94
62697;BME280;48761;42.680;23.312;2023-02-23T11:40:28;94635.34;;;17.06;37.74
62697;BME280;48761;42.680;23.312;2023-02-23T11:43:06;94629.09;;;17.16;37.65
62697;BME280;48761;42.680;23.312;2023-02-23T11:45:43;94623.59;;;17.07;37.28
62697;BME280;48761;42.680;23.312;2023-02-23T11:48:24;94622.06;;;16.86;37.65
62697;BME280;48761;42.680;23.312;2023-02-23T11:50:52;94593.59;;;16.57;38.03
62697;BME280;48761;42.680;23.312;2023-02-23T11:53:30;94621.84;;;16.98;37.91
62697;BME280;48761;42.680;23.312;2023-02-23T11:56:00;94629.22;;;16.49;38.23
62697;BME280;48761;42.680;23.312;2023-02-23T11:58:46;94626.88;;;16.64;37.97
62697;BME280;48761;42.680;23.312;2023-02-23T12:01:16;94628.09;;;16.52;37.93
62697;BME280;48761;42.680;23.312;2023-02-23T12:03:54;94600.19;;;16.44;38.12
62697;BME280;48761;42.680;23.312;2023-02-23T12:06:39;94612.44;;;16.47;38.12
62697;BME280;48761;42.680;23.312;2023-02-23T12:09:28;94607.81;;;16.67;38.00
62697;BME280;48761;42.680;23.312;2023-02-23T12:12:04;94609.28;;;16.80;37.70
62697;BME280;48761;42.680;23.312;2023-02-23T12:14:54;94616.09;;;16.92;37.34
62697;BME280;48761;42.680;23.312;2023-02-23T12:17:25;94615.38;;;16.72;37.44
62697;BME280;48761;42.680;23.312;2023-02-23T12:20:20;94606.44;;;16.35;37.88
62697;BME280;48761;42.680;23.312;2023-02-23T12:23:20;94607.31;;;16.25;37.98
62697;BME280;48761;42.680;23.312;2023-02-23T12:25:53;94596.91;;;16.22;38.08
62697;BME280;48761;42.680;23.312;2023-02-23T12:28:30;94604.63;;;16.35;38.14
62697;BME280;48761;42.680;23.312;2023-02-23T12:31:27;94604.50;;;16.27;38.10
62697;BME280;48761;42.680;23.312;2023-02-23T12:34:03;94597.44;;;16.26;37.80
62697;BME280;48761;42.680;23.312;2023-02-23T12:36:45;94586.47;;;16.19;37.83
62697;BME280;48761;42.680;23.312;2023-02-23T12:39:23;94592.75;;;16.10;37.97
62697;BME280;48761;42.680;23.312;2023-02-23T12:41:59;94593.03;;;16.07;37.75
62697;BME280;48761;42.680;23.312;2023-02-23T12:44:42;94597.84;;;15.93;37.95
62697;BME280;48761;42.680;23.312;2023-02-23T12:47:34;94601.25;;;16.05;37.94
62697;BME280;48761;42.680;23.312;2023-02-23T12:50:04;94583.00;;;16.09;37.75
62697;BME280;48761;42.680;23.312;2023-02-23T12:52:34;94582.84;;;16.10;37.91
62697;BME280;48761;42.680;23.312;2023-02-23T12:55:02;94593.50;;;16.30;38.30
62697;BME280;48761;42.680;23.312;2023-02-23T13:05:44;94572.78;;;16.22;39.23
62697;BME280;48761;42.680;23.312;2023-02-23T13:13:36;94589.53;;;15.96;40.06
62697;BME280;48761;42.680;23.312;2023-02-23T13:16:13;94589.91;;;16.01;39.91
62697;BME280;48761;42.680;23.312;2023-02-23T13:21:29;94593.53;;;15.82;40.47
62697;BME280;48761;42.680;23.312;2023-02-23T13:24:02;94595.97;;;16.03;40.23
62697;BME280;48761;42.680;23.312;2023-02-23T13:31:53;94579.41;;;15.90;40.06
62697;BME280;48761;42.680;23.312;2023-02-23T13:37:27;94576.41;;;15.93;40.43
62697;BME280;48761;42.680;23.312;2023-02-23T13:48:02;94582.09;;;15.90;40.30
62697;BME280;48761;42.680;23.312;2023-02-23T13:50:43;94583.00;;;16.09;39.77
62697;BME280;48761;42.680;23.312;2023-02-23T13:55:57;94588.03;;;15.84;39.82
62697;BME280;48761;42.680;23.312;2023-02-23T13:58:28;94587.97;;;15.94;39.87
62697;BME280;48761;42.680;23.312;2023-02-23T14:01:08;94585.75;;;15.89;40.01
62697;BME280;48761;42.680;23.312;2023-02-23T14:03:45;94591.69;;;15.83;39.77
62697;BME280;48761;42.680;23.312;2023-02-23T14:06:16;94579.31;;;15.72;40.15
62697;BME280;48761;42.680;23.312;2023-02-23T14:08:48;94566.06;;;15.70;39.95
62697;BME280;48761;42.680;23.312;2023-02-23T14:11:27;94583.81;;;15.81;39.91
62697;BME280;48761;42.680;23.312;2023-02-23T14:14:00;94557.81;;;15.53;39.78
62697;BME280;48761;42.680;23.312;2023-02-23T14:16:26;94585.81;;;15.69;39.77
62697;BME280;48761;42.680;23.312;2023-02-23T14:22:07;94593.09;;;15.87;39.35
62697;BME280;48761;42.680;23.312;2023-02-23T14:24:34;94586.63;;;15.79;39.42
62697;BME280;48761;42.680;23.312;2023-02-23T14:29:28;94566.47;;;15.27;42.77
62697;BME280;48761;42.680;23.312;2023-02-23T14:39:48;94577.63;;;15.12;45.31
62697;BME280;48761;42.680;23.312;2023-02-23T14:42:26;94561.44;;;14.94;45.64
62697;BME280;48761;42.680;23.312;2023-02-23T14:44:54;94576.09;;;14.90;45.81
62697;BME280;48761;42.680;23.312;2023-02-23T14:47:22;94580.91;;;14.86;45.59
62697;BME280;48761;42.680;23.312;2023-02-23T14:49:56;94583.97;;;14.92;45.76
62697;BME280;48761;42.680;23.312;2023-02-23T14:52:25;94590.47;;;14.99;45.53
62697;BME280;48761;42.680;23.312;2023-02-23T14:55:06;94584.13;;;15.00;44.85
62697;BME280;48761;42.680;23.312;2023-02-23T14:57:35;94571.41;;;14.82;44.65